sensor_id;sensor_type;location;lat;lon;timestamp;P1;durP1;ratioP1;P2;durP2;ratioP2
49738;SDS011;53662;50.114;8.626;2022-08-19T00:00:33;16.15;;;12.88;;
49738;SDS011;53662;50.114;8.626;2022-08-19T00:02:59;13.65;;;12.23;;
49738;SDS011;53662;50.114;8.626;2022-08-19T00:05:25;14.35;;;12.75;;
49738;SDS011;53662;50.114;8.626;2022-08-19T00:07:51;15.75;;;14.10;;
49738;SDS011;53662;50.114;8.626;2022-08-19T00:10:18;17.20;;;13.68;;
49738;SDS011;53662;50.114;8.626;2022-08-19T00:12:44;15.20;;;13.68;;
49738;SDS011;53662;50.114;8.626;2022-08-19T00:15:11;15.75;;;14.05;;
49738;SDS011;53662;50.114;8.626;2022-08-19T00:17:39;15.50;;;13.85;;
49738;SDS011;53662;50.114;8.626;2022-08-19T00:20:05;15.82;;;13.73;;
49738;SDS011;53662;50.114;8.626;2022-08-19T00:22:32;14.32;;;12.88;;
49738;SDS011;53662;50.114;8.626;2022-08-19T00:24:58;19.88;;;15.18;;
49738;SDS011;53662;50.114;8.626;2022-08-19T00:27:24;15.27;;;13.63;;
49738;SDS011;53662;50.114;8.626;2022-08-19T00:29:50;17.85;;;16.00;;
49738;SDS011;53662;50.114;8.626;2022-08-19T00:32:16;15.38;;;13.77;;
49738;SDS011;53662;50.114;8.626;2022-08-19T00:34:42;21.85;;;14.73;;
49738;SDS011;53662;50.114;8.626;2022-08-19T00:37:08;17.48;;;14.80;;
49738;SDS011;53662;50.114;8.626;2022-08-19T00:39:34;17.80;;;14.60;;
49738;SDS011;53662;50.114;8.626;2022-08-19T00:42:00;17.73;;;14.63;;
49738;SDS011;53662;50.114;8.626;2022-08-19T00:44:27;19.65;;;15.30;;
49738;SDS011;53662;50.114;8.626;2022-08-19T00:46:55;18.30;;;14.55;;
49738;SDS011;53662;50.114;8.626;2022-08-19T00:49:26;14.85;;;13.30;;
49738;SDS011;53662;50.114;8.626;2022-08-19T00:51:55;16.02;;;13.50;;
49738;SDS011;53662;50.114;8.626;2022-08-19T00:54:22;20.83;;;14.02;;
49738;SDS011;53662;50.114;8.626;2022-08-19T00:56:48;15.38;;;13.65;;
49738;SDS011;53662;50.114;8.626;2022-08-19T00:59:15;15.35;;;13.75;;
49738;SDS011;53662;50.114;8.626;2022-08-19T01:01:42;16.50;;;14.77;;
49738;SDS011;53662;50.114;8.626;2022-08-19T01:04:09;14.95;;;12.73;;
49738;SDS011;53662;50.114;8.626;2022-08-19T01:06:35;17.27;;;13.23;;
49738;SDS011;53662;50.114;8.626;2022-08-19T01:09:03;16.55;;;12.63;;
49738;SDS011;53662;50.114;8.626;2022-08-19T01:11:30;14.90;;;12.77;;
49738;SDS011;53662;50.114;8.626;2022-08-19T01:13:56;19.20;;;13.10;;
49738;SDS011;53662;50.114;8.626;2022-08-19T01:16:24;14.48;;;12.30;;
49738;SDS011;53662;50.114;8.626;2022-08-19T01:18:50;13.88;;;12.57;;
49738;SDS011;53662;50.114;8.626;2022-08-19T01:21:28;12.27;;;11.13;;
49738;SDS011;53662;50.114;8.626;2022-08-19T01:23:56;16.13;;;12.60;;
49738;SDS011;53662;50.114;8.626;2022-08-19T01:26:24;14.48;;;11.43;;
49738;SDS011;53662;50.114;8.626;2022-08-19T01:28:51;13.32;;;11.95;;
49738;SDS011;53662;50.114;8.626;2022-08-19T01:31:19;12.75;;;11.65;;
49738;SDS011;53662;50.114;8.626;2022-08-19T01:33:46;13.80;;;12.43;;
49738;SDS011;53662;50.114;8.626;2022-08-19T01:36:14;11.60;;;10.43;;
49738;SDS011;53662;50.114;8.626;2022-08-19T01:38:42;12.65;;;11.23;;
49738;SDS011;53662;50.114;8.626;2022-08-19T01:41:08;12.90;;;11.48;;
49738;SDS011;53662;50.114;8.626;2022-08-19T01:43:34;13.70;;;10.77;;
49738;SDS011;53662;50.114;8.626;2022-08-19T01:46:00;13.20;;;11.20;;
49738;SDS011;53662;50.114;8.626;2022-08-19T01:48:32;12.93;;;11.25;;
49738;SDS011;53662;50.114;8.626;2022-08-19T01:50:58;11.35;;;9.27;;
49738;SDS011;53662;50.114;8.626;2022-08-19T01:53:24;11.15;;;10.15;;
49738;SDS011;53662;50.114;8.626;2022-08-19T01:55:50;12.73;;;10.23;;
49738;SDS011;53662;50.114;8.626;2022-08-19T01:58:17;14.85;;;11.27;;
49738;SDS011;53662;50.114;8.626;2022-08-19T02:00:44;15.18;;;10.98;;
49738;SDS011;53662;50.114;8.626;2022-08-19T02:03:10;11.63;;;10.43;;
49738;SDS011;53662;50.114;8.626;2022-08-19T02:05:36;10.52;;;9.57;;
49738;SDS011;53662;50.114;8.626;2022-08-19T02:08:03;9.85;;;8.98;;
49738;SDS011;53662;50.114;8.626;2022-08-19T02:10:29;11.70;;;10.52;;
49738;SDS011;53662;50.114;8.626;2022-08-19T02:12:55;13.30;;;10.60;;
49738;SDS011;53662;50.114;8.626;2022-08-19T02:15:21;12.07;;;10.90;;
49738;SDS011;53662;50.114;8.626;2022-08-19T02:17:47;10.43;;;9.35;;
49738;SDS011;53662;50.114;8.626;2022-08-19T02:20:14;12.07;;;10.13;;
49738;SDS011;53662;50.114;8.626;2022-08-19T02:22:40;11.65;;;10.55;;
49738;SDS011;53662;50.114;8.626;2022-08-19T02:25:07;10.98;;;9.82;;
49738;SDS011;53662;50.114;8.626;2022-08-19T02:27:34;11.38;;;10.32;;
49738;SDS011;53662;50.114;8.626;2022-08-19T02:30:00;11.32;;;9.70;;
49738;SDS011;53662;50.114;8.626;2022-08-19T02:32:26;10.50;;;9.43;;
49738;SDS011;53662;50.114;8.626;2022-08-19T02:34:52;13.75;;;10.52;;
49738;SDS011;53662;50.114;8.626;2022-08-19T02:37:18;10.65;;;9.75;;
49738;SDS011;53662;50.114;8.626;2022-08-19T02:40:03;13.55;;;10.07;;
49738;SDS011;53662;50.114;8.626;2022-08-19T02:42:29;10.90;;;9.77;;
49738;SDS011;53662;50.114;8.626;2022-08-19T02:44:56;11.57;;;9.80;;
49738;SDS011;53662;50.114;8.626;2022-08-19T02:47:22;12.48;;;10.63;;
49738;SDS011;53662;50.114;8.626;2022-08-19T02:49:48;10.45;;;9.35;;
49738;SDS011;53662;50.114;8.626;2022-08-19T02:52:14;11.05;;;9.40;;
49738;SDS011;53662;50.114;8.626;2022-08-19T02:54:40;10.32;;;9.32;;
49738;SDS011;53662;50.114;8.626;2022-08-19T02:57:07;10.65;;;9.55;;
49738;SDS011;53662;50.114;8.626;2022-08-19T02:59:33;9.93;;;9.05;;
49738;SDS011;53662;50.114;8.626;2022-08-19T03:01:59;11.05;;;8.98;;
49738;SDS011;53662;50.114;8.626;2022-08-19T03:04:25;11.00;;;9.50;;
49738;SDS011;53662;50.114;8.626;2022-08-19T03:06:51;10.15;;;7.65;;
49738;SDS011;53662;50.114;8.626;2022-08-19T03:09:18;9.95;;;9.13;;
49738;SDS011;53662;50.114;8.626;2022-08-19T03:11:44;11.43;;;9.00;;
49738;SDS011;53662;50.114;8.626;2022-08-19T03:14:10;13.95;;;8.13;;
49738;SDS011;53662;50.114;8.626;2022-08-19T03:16:41;12.80;;;10.02;;
49738;SDS011;53662;50.114;8.626;2022-08-19T03:19:07;15.25;;;9.57;;
49738;SDS011;53662;50.114;8.626;2022-08-19T03:21:34;11.52;;;9.82;;
49738;SDS011;53662;50.114;8.626;2022-08-19T03:24:01;11.43;;;10.02;;
49738;SDS011;53662;50.114;8.626;2022-08-19T03:26:28;16.52;;;9.73;;
49738;SDS011;53662;50.114;8.626;2022-08-19T03:28:54;11.25;;;10.18;;
49738;SDS011;53662;50.114;8.626;2022-08-19T03:31:21;14.15;;;9.70;;
49738;SDS011;53662;50.114;8.626;2022-08-19T03:33:50;14.40;;;11.00;;
49738;SDS011;53662;50.114;8.626;2022-08-19T03:36:18;13.88;;;11.13;;
49738;SDS011;53662;50.114;8.626;2022-08-19T03:38:46;14.30;;;10.90;;
49738;SDS011;53662;50.114;8.626;2022-08-19T03:41:23;24.67;;;11.80;;
49738;SDS011;53662;50.114;8.626;2022-08-19T03:43:49;12.40;;;11.10;;
49738;SDS011;53662;50.114;8.626;2022-08-19T03:46:16;13.07;;;10.48;;
49738;SDS011;53662;50.114;8.626;2022-08-19T03:48:45;13.75;;;12.30;;
49738;SDS011;53662;50.114;8.626;2022-08-19T03:51:20;16.73;;;12.45;;
49738;SDS011;53662;50.114;8.626;2022-08-19T03:53:47;17.70;;;11.95;;
49738;SDS011;53662;50.114;8.626;2022-08-19T03:56:13;16.45;;;11.50;;
49738;SDS011;53662;50.114;8.626;2022-08-19T03:58:39;14.60;;;11.93;;
49738;SDS011;53662;50.114;8.626;2022-08-19T04:01:09;16.75;;;11.80;;
49738;SDS011;53662;50.114;8.626;2022-08-19T04:03:36;13.32;;;12.00;;
49738;SDS011;53662;50.114;8.626;2022-08-19T04:08:38;16.23;;;11.43;;
49738;SDS011;53662;50.114;8.626;2022-08-19T04:11:12;13.02;;;11.20;;
49738;SDS011;53662;50.114;8.626;2022-08-19T04:13:38;14.88;;;10.98;;
49738;SDS011;53662;50.114;8.626;2022-08-19T04:16:05;17.77;;;11.52;;
49738;SDS011;53662;50.114;8.626;2022-08-19T04:18:32;16.40;;;10.75;;
49738;SDS011;53662;50.114;8.626;2022-08-19T04:20:58;15.45;;;11.25;;
49738;SDS011;53662;50.114;8.626;2022-08-19T04:23:26;16.40;;;11.48;;
49738;SDS011;53662;50.114;8.626;2022-08-19T04:25:53;14.25;;;10.50;;
49738;SDS011;53662;50.114;8.626;2022-08-19T04:28:19;11.18;;;10.05;;
49738;SDS011;53662;50.114;8.626;2022-08-19T04:30:46;18.02;;;11.73;;
49738;SDS011;53662;50.114;8.626;2022-08-19T04:33:13;18.27;;;11.02;;
49738;SDS011;53662;50.114;8.626;2022-08-19T04:35:46;13.98;;;10.90;;
49738;SDS011;53662;50.114;8.626;2022-08-19T04:38:16;14.73;;;10.63;;
49738;SDS011;53662;50.114;8.626;2022-08-19T04:40:47;14.50;;;11.63;;
49738;SDS011;53662;50.114;8.626;2022-08-19T04:43:32;13.15;;;9.65;;
49738;SDS011;53662;50.114;8.626;2022-08-19T04:45:58;21.05;;;10.88;;
49738;SDS011;53662;50.114;8.626;2022-08-19T04:48:29;21.13;;;11.23;;
49738;SDS011;53662;50.114;8.626;2022-08-19T04:50:56;14.80;;;10.35;;
49738;SDS011;53662;50.114;8.626;2022-08-19T04:53:26;10.65;;;9.32;;
49738;SDS011;53662;50.114;8.626;2022-08-19T04:55:53;12.93;;;10.05;;
49738;SDS011;53662;50.114;8.626;2022-08-19T04:58:19;19.25;;;9.95;;
49738;SDS011;53662;50.114;8.626;2022-08-19T05:00:45;15.90;;;10.98;;
49738;SDS011;53662;50.114;8.626;2022-08-19T05:03:11;12.57;;;9.02;;
49738;SDS011;53662;50.114;8.626;2022-08-19T05:05:40;9.93;;;9.00;;
49738;SDS011;53662;50.114;8.626;2022-08-19T05:08:07;10.95;;;8.93;;
49738;SDS011;53662;50.114;8.626;2022-08-19T05:10:37;14.27;;;9.32;;
49738;SDS011;53662;50.114;8.626;2022-08-19T05:13:03;12.17;;;9.20;;
49738;SDS011;53662;50.114;8.626;2022-08-19T05:15:29;12.70;;;9.40;;
49738;SDS011;53662;50.114;8.626;2022-08-19T05:17:55;12.52;;;8.60;;
49738;SDS011;53662;50.114;8.626;2022-08-19T05:20:40;13.32;;;9.50;;
49738;SDS011;53662;50.114;8.626;2022-08-19T05:23:25;16.50;;;9.30;;
49738;SDS011;53662;50.114;8.626;2022-08-19T05:25:51;18.08;;;9.73;;
49738;SDS011;53662;50.114;8.626;2022-08-19T05:28:17;16.70;;;8.70;;
49738;SDS011;53662;50.114;8.626;2022-08-19T05:30:43;18.15;;;9.18;;
49738;SDS011;53662;50.114;8.626;2022-08-19T05:33:10;16.67;;;8.50;;
49738;SDS011;53662;50.114;8.626;2022-08-19T05:35:37;9.93;;;8.35;;
49738;SDS011;53662;50.114;8.626;2022-08-19T05:38:04;10.35;;;8.45;;
49738;SDS011;53662;50.114;8.626;2022-08-19T05:40:30;8.45;;;7.65;;
49738;SDS011;53662;50.114;8.626;2022-08-19T05:42:56;14.77;;;8.02;;
49738;SDS011;53662;50.114;8.626;2022-08-19T05:45:22;11.85;;;7.60;;
49738;SDS011;53662;50.114;8.626;2022-08-19T05:47:47;13.63;;;7.25;;
49738;SDS011;53662;50.114;8.626;2022-08-19T05:50:13;13.63;;;7.05;;
49738;SDS011;53662;50.114;8.626;2022-08-19T05:52:39;7.43;;;6.57;;
49738;SDS011;53662;50.114;8.626;2022-08-19T05:55:06;16.65;;;8.48;;
49738;SDS011;53662;50.114;8.626;2022-08-19T05:57:32;11.23;;;7.43;;
49738;SDS011;53662;50.114;8.626;2022-08-19T05:59:58;7.78;;;6.82;;
49738;SDS011;53662;50.114;8.626;2022-08-19T06:02:26;9.55;;;7.50;;
49738;SDS011;53662;50.114;8.626;2022-08-19T06:04:52;11.32;;;7.70;;
49738;SDS011;53662;50.114;8.626;2022-08-19T06:07:18;11.57;;;7.75;;
49738;SDS011;53662;50.114;8.626;2022-08-19T06:09:44;8.57;;;6.65;;
49738;SDS011;53662;50.114;8.626;2022-08-19T06:12:10;11.98;;;7.03;;
49738;SDS011;53662;50.114;8.626;2022-08-19T06:14:36;12.60;;;7.47;;
49738;SDS011;53662;50.114;8.626;2022-08-19T06:17:02;9.30;;;6.70;;
49738;SDS011;53662;50.114;8.626;2022-08-19T06:19:29;8.77;;;5.82;;
49738;SDS011;53662;50.114;8.626;2022-08-19T06:21:56;6.40;;;5.60;;
49738;SDS011;53662;50.114;8.626;2022-08-19T06:24:24;12.57;;;6.07;;
49738;SDS011;53662;50.114;8.626;2022-08-19T06:26:50;9.20;;;5.57;;
49738;SDS011;53662;50.114;8.626;2022-08-19T06:29:18;7.72;;;5.70;;
49738;SDS011;53662;50.114;8.626;2022-08-19T06:31:45;9.85;;;6.72;;
49738;SDS011;53662;50.114;8.626;2022-08-19T06:34:12;6.80;;;5.03;;
49738;SDS011;53662;50.114;8.626;2022-08-19T06:36:39;5.78;;;5.05;;
49738;SDS011;53662;50.114;8.626;2022-08-19T06:39:08;12.25;;;5.90;;
49738;SDS011;53662;50.114;8.626;2022-08-19T06:41:36;9.18;;;5.82;;
49738;SDS011;53662;50.114;8.626;2022-08-19T06:44:04;8.25;;;6.35;;
49738;SDS011;53662;50.114;8.626;2022-08-19T06:46:30;6.15;;;5.55;;
49738;SDS011;53662;50.114;8.626;2022-08-19T06:48:56;7.72;;;5.53;;
49738;SDS011;53662;50.114;8.626;2022-08-19T06:51:22;6.30;;;4.57;;
49738;SDS011;53662;50.114;8.626;2022-08-19T06:53:50;5.97;;;4.78;;
49738;SDS011;53662;50.114;8.626;2022-08-19T06:56:16;7.82;;;5.32;;
49738;SDS011;53662;50.114;8.626;2022-08-19T06:58:43;6.30;;;5.03;;
49738;SDS011;53662;50.114;8.626;2022-08-19T07:01:09;10.88;;;5.72;;
49738;SDS011;53662;50.114;8.626;2022-08-19T07:03:36;16.52;;;6.40;;
49738;SDS011;53662;50.114;8.626;2022-08-19T07:06:07;7.95;;;5.57;;
49738;SDS011;53662;50.114;8.626;2022-08-19T07:08:34;12.23;;;6.55;;
49738;SDS011;53662;50.114;8.626;2022-08-19T07:11:01;10.77;;;5.75;;
49738;SDS011;53662;50.114;8.626;2022-08-19T07:13:28;20.63;;;5.97;;
49738;SDS011;53662;50.114;8.626;2022-08-19T07:15:54;14.70;;;6.63;;
49738;SDS011;53662;50.114;8.626;2022-08-19T07:18:20;10.77;;;6.00;;
49738;SDS011;53662;50.114;8.626;2022-08-19T07:20:46;28.45;;;5.50;;
49738;SDS011;53662;50.114;8.626;2022-08-19T07:23:12;9.88;;;6.47;;
49738;SDS011;53662;50.114;8.626;2022-08-19T07:25:38;7.90;;;5.72;;
49738;SDS011;53662;50.114;8.626;2022-08-19T07:28:05;9.32;;;5.07;;
49738;SDS011;53662;50.114;8.626;2022-08-19T07:30:35;7.72;;;5.32;;
49738;SDS011;53662;50.114;8.626;2022-08-19T07:33:01;8.20;;;4.90;;
49738;SDS011;53662;50.114;8.626;2022-08-19T07:35:28;8.40;;;5.55;;
49738;SDS011;53662;50.114;8.626;2022-08-19T07:37:56;7.93;;;5.50;;
49738;SDS011;53662;50.114;8.626;2022-08-19T07:40:22;18.55;;;4.90;;
49738;SDS011;53662;50.114;8.626;2022-08-19T07:42:49;33.13;;;6.82;;
49738;SDS011;53662;50.114;8.626;2022-08-19T07:45:15;10.60;;;6.50;;
49738;SDS011;53662;50.114;8.626;2022-08-19T07:47:41;10.73;;;7.03;;
49738;SDS011;53662;50.114;8.626;2022-08-19T07:50:08;11.15;;;6.30;;
49738;SDS011;53662;50.114;8.626;2022-08-19T07:52:36;8.35;;;6.50;;
49738;SDS011;53662;50.114;8.626;2022-08-19T07:55:04;13.18;;;7.18;;
49738;SDS011;53662;50.114;8.626;2022-08-19T07:57:30;14.57;;;7.90;;
49738;SDS011;53662;50.114;8.626;2022-08-19T07:59:56;29.27;;;8.32;;
49738;SDS011;53662;50.114;8.626;2022-08-19T08:02:22;11.93;;;7.78;;
49738;SDS011;53662;50.114;8.626;2022-08-19T08:04:48;11.73;;;7.47;;
49738;SDS011;53662;50.114;8.626;2022-08-19T08:07:33;9.30;;;7.05;;
49738;SDS011;53662;50.114;8.626;2022-08-19T08:10:18;8.90;;;6.78;;
49738;SDS011;53662;50.114;8.626;2022-08-19T08:12:44;16.17;;;7.20;;
49738;SDS011;53662;50.114;8.626;2022-08-19T08:15:11;13.45;;;8.18;;
49738;SDS011;53662;50.114;8.626;2022-08-19T08:17:41;13.25;;;7.32;;
49738;SDS011;53662;50.114;8.626;2022-08-19T08:20:10;11.27;;;7.03;;
49738;SDS011;53662;50.114;8.626;2022-08-19T08:22:37;19.80;;;7.95;;
49738;SDS011;53662;50.114;8.626;2022-08-19T08:25:22;16.92;;;7.22;;
49738;SDS011;53662;50.114;8.626;2022-08-19T08:27:49;18.80;;;6.88;;
49738;SDS011;53662;50.114;8.626;2022-08-19T08:30:16;87.25;;;11.23;;
49738;SDS011;53662;50.114;8.626;2022-08-19T08:32:42;16.98;;;6.70;;
49738;SDS011;53662;50.114;8.626;2022-08-19T08:35:09;27.80;;;8.82;;
49738;SDS011;53662;50.114;8.626;2022-08-19T08:37:36;15.23;;;7.20;;
49738;SDS011;53662;50.114;8.626;2022-08-19T08:40:22;8.32;;;7.00;;
49738;SDS011;53662;50.114;8.626;2022-08-19T08:43:03;14.25;;;6.90;;
49738;SDS011;53662;50.114;8.626;2022-08-19T08:45:29;13.77;;;7.85;;
49738;SDS011;53662;50.114;8.626;2022-08-19T08:47:56;20.27;;;7.05;;
49738;SDS011;53662;50.114;8.626;2022-08-19T08:50:39;14.75;;;8.00;;
49738;SDS011;53662;50.114;8.626;2022-08-19T08:53:07;15.85;;;8.30;;
49738;SDS011;53662;50.114;8.626;2022-08-19T08:55:34;11.80;;;7.22;;
49738;SDS011;53662;50.114;8.626;2022-08-19T08:58:01;14.60;;;7.78;;
49738;SDS011;53662;50.114;8.626;2022-08-19T09:00:30;23.85;;;8.43;;
49738;SDS011;53662;50.114;8.626;2022-08-19T09:02:57;17.42;;;8.52;;
49738;SDS011;53662;50.114;8.626;2022-08-19T09:05:27;14.60;;;7.90;;
49738;SDS011;53662;50.114;8.626;2022-08-19T09:08:04;10.90;;;6.88;;
49738;SDS011;53662;50.114;8.626;2022-08-19T09:10:37;19.88;;;8.15;;
49738;SDS011;53662;50.114;8.626;2022-08-19T09:15:40;15.10;;;7.35;;
49738;SDS011;53662;50.114;8.626;2022-08-19T09:18:09;11.77;;;6.50;;
49738;SDS011;53662;50.114;8.626;2022-08-19T09:20:35;11.32;;;6.47;;
49738;SDS011;53662;50.114;8.626;2022-08-19T09:23:01;14.02;;;6.53;;
49738;SDS011;53662;50.114;8.626;2022-08-19T09:25:27;16.25;;;6.45;;
49738;SDS011;53662;50.114;8.626;2022-08-19T09:27:53;10.77;;;5.75;;
49738;SDS011;53662;50.114;8.626;2022-08-19T09:30:25;18.02;;;6.90;;
49738;SDS011;53662;50.114;8.626;2022-08-19T09:32:51;8.05;;;6.07;;
49738;SDS011;53662;50.114;8.626;2022-08-19T09:35:18;19.20;;;6.93;;
49738;SDS011;53662;50.114;8.626;2022-08-19T09:37:44;10.43;;;6.28;;
49738;SDS011;53662;50.114;8.626;2022-08-19T09:40:13;13.88;;;6.82;;
49738;SDS011;53662;50.114;8.626;2022-08-19T09:42:39;11.57;;;7.22;;
49738;SDS011;53662;50.114;8.626;2022-08-19T09:45:08;9.70;;;6.43;;
49738;SDS011;53662;50.114;8.626;2022-08-19T09:47:34;11.13;;;7.20;;
49738;SDS011;53662;50.114;8.626;2022-08-19T09:50:04;9.40;;;6.60;;
49738;SDS011;53662;50.114;8.626;2022-08-19T09:52:30;11.63;;;6.60;;
49738;SDS011;53662;50.114;8.626;2022-08-19T09:54:56;7.47;;;6.43;;
49738;SDS011;53662;50.114;8.626;2022-08-19T09:57:22;14.00;;;7.18;;
49738;SDS011;53662;50.114;8.626;2022-08-19T09:59:48;11.27;;;7.43;;
49738;SDS011;53662;50.114;8.626;2022-08-19T10:02:14;9.43;;;6.43;;
49738;SDS011;53662;50.114;8.626;2022-08-19T10:04:40;10.52;;;7.05;;
49738;SDS011;53662;50.114;8.626;2022-08-19T10:07:24;10.25;;;7.40;;
49738;SDS011;53662;50.114;8.626;2022-08-19T10:09:50;9.95;;;7.38;;
49738;SDS011;53662;50.114;8.626;2022-08-19T10:12:16;9.15;;;6.28;;
49738;SDS011;53662;50.114;8.626;2022-08-19T10:14:42;12.65;;;7.32;;
49738;SDS011;53662;50.114;8.626;2022-08-19T10:17:09;16.55;;;7.15;;
49738;SDS011;53662;50.114;8.626;2022-08-19T10:19:35;16.75;;;7.63;;
49738;SDS011;53662;50.114;8.626;2022-08-19T10:22:04;17.90;;;6.63;;
49738;SDS011;53662;50.114;8.626;2022-08-19T10:24:32;16.88;;;7.82;;
49738;SDS011;53662;50.114;8.626;2022-08-19T10:26:58;14.80;;;6.95;;
49738;SDS011;53662;50.114;8.626;2022-08-19T10:29:24;10.63;;;7.53;;
49738;SDS011;53662;50.114;8.626;2022-08-19T10:31:52;12.00;;;7.70;;
49738;SDS011;53662;50.114;8.626;2022-08-19T10:34:18;12.35;;;6.85;;
49738;SDS011;53662;50.114;8.626;2022-08-19T10:36:44;10.73;;;7.63;;
49738;SDS011;53662;50.114;8.626;2022-08-19T10:39:10;9.25;;;7.68;;
49738;SDS011;53662;50.114;8.626;2022-08-19T10:41:39;12.48;;;8.40;;
49738;SDS011;53662;50.114;8.626;2022-08-19T10:44:09;14.80;;;8.40;;
49738;SDS011;53662;50.114;8.626;2022-08-19T10:46:36;13.57;;;8.40;;
49738;SDS011;53662;50.114;8.626;2022-08-19T10:49:03;12.70;;;8.75;;
49738;SDS011;53662;50.114;8.626;2022-08-19T10:51:29;17.75;;;10.00;;
49738;SDS011;53662;50.114;8.626;2022-08-19T10:54:14;14.52;;;9.80;;
49738;SDS011;53662;50.114;8.626;2022-08-19T10:56:40;13.90;;;8.95;;
49738;SDS011;53662;50.114;8.626;2022-08-19T10:59:20;42.03;;;29.60;;
49738;SDS011;53662;50.114;8.626;2022-08-19T11:01:47;16.23;;;12.85;;
49738;SDS011;53662;50.114;8.626;2022-08-19T11:04:13;13.52;;;11.25;;
49738;SDS011;53662;50.114;8.626;2022-08-19T11:06:43;13.27;;;10.15;;
49738;SDS011;53662;50.114;8.626;2022-08-19T11:09:10;18.30;;;9.77;;
49738;SDS011;53662;50.114;8.626;2022-08-19T11:11:36;11.05;;;9.40;;
49738;SDS011;53662;50.114;8.626;2022-08-19T11:14:04;14.20;;;10.70;;
49738;SDS011;53662;50.114;8.626;2022-08-19T11:16:30;11.80;;;9.85;;
49738;SDS011;53662;50.114;8.626;2022-08-19T11:18:57;12.15;;;10.18;;
49738;SDS011;53662;50.114;8.626;2022-08-19T11:21:25;11.85;;;9.82;;
49738;SDS011;53662;50.114;8.626;2022-08-19T11:23:53;11.60;;;9.23;;
49738;SDS011;53662;50.114;8.626;2022-08-19T11:26:20;11.20;;;8.50;;
49738;SDS011;53662;50.114;8.626;2022-08-19T11:28:46;13.75;;;9.68;;
49738;SDS011;53662;50.114;8.626;2022-08-19T11:31:13;18.02;;;9.98;;
49738;SDS011;53662;50.114;8.626;2022-08-19T11:33:40;12.32;;;9.32;;
49738;SDS011;53662;50.114;8.626;2022-08-19T11:36:06;10.27;;;9.23;;
49738;SDS011;53662;50.114;8.626;2022-08-19T11:38:32;13.80;;;10.57;;
49738;SDS011;53662;50.114;8.626;2022-08-19T11:41:00;16.23;;;9.48;;
49738;SDS011;53662;50.114;8.626;2022-08-19T11:43:27;14.48;;;9.63;;
49738;SDS011;53662;50.114;8.626;2022-08-19T11:45:54;17.63;;;10.13;;
49738;SDS011;53662;50.114;8.626;2022-08-19T11:48:20;14.55;;;10.10;;
49738;SDS011;53662;50.114;8.626;2022-08-19T11:50:46;12.80;;;9.57;;
49738;SDS011;53662;50.114;8.626;2022-08-19T11:53:12;16.05;;;10.25;;
49738;SDS011;53662;50.114;8.626;2022-08-19T11:55:39;20.02;;;13.50;;
49738;SDS011;53662;50.114;8.626;2022-08-19T11:58:05;17.02;;;11.18;;
49738;SDS011;53662;50.114;8.626;2022-08-19T12:00:33;20.70;;;14.57;;
49738;SDS011;53662;50.114;8.626;2022-08-19T12:03:00;15.98;;;9.93;;
49738;SDS011;53662;50.114;8.626;2022-08-19T12:05:26;16.67;;;11.85;;
49738;SDS011;53662;50.114;8.626;2022-08-19T12:07:52;12.50;;;10.05;;
49738;SDS011;53662;50.114;8.626;2022-08-19T12:10:19;18.00;;;10.82;;
49738;SDS011;53662;50.114;8.626;2022-08-19T12:12:45;10.25;;;9.23;;
49738;SDS011;53662;50.114;8.626;2022-08-19T12:15:11;11.13;;;8.98;;
49738;SDS011;53662;50.114;8.626;2022-08-19T12:17:39;12.10;;;9.57;;
49738;SDS011;53662;50.114;8.626;2022-08-19T12:20:06;16.95;;;9.57;;
49738;SDS011;53662;50.114;8.626;2022-08-19T12:22:34;10.70;;;8.65;;
49738;SDS011;53662;50.114;8.626;2022-08-19T12:25:00;10.48;;;8.88;;
49738;SDS011;53662;50.114;8.626;2022-08-19T12:27:26;11.35;;;8.85;;
49738;SDS011;53662;50.114;8.626;2022-08-19T12:29:52;9.60;;;7.90;;
49738;SDS011;53662;50.114;8.626;2022-08-19T12:32:18;10.90;;;8.27;;
49738;SDS011;53662;50.114;8.626;2022-08-19T12:34:44;18.20;;;8.70;;
49738;SDS011;53662;50.114;8.626;2022-08-19T12:37:12;13.80;;;9.63;;
49738;SDS011;53662;50.114;8.626;2022-08-19T12:39:40;12.60;;;9.30;;
49738;SDS011;53662;50.114;8.626;2022-08-19T12:42:07;12.93;;;9.20;;
49738;SDS011;53662;50.114;8.626;2022-08-19T12:44:34;37.97;;;12.90;;
49738;SDS011;53662;50.114;8.626;2022-08-19T12:47:00;46.45;;;11.77;;
49738;SDS011;53662;50.114;8.626;2022-08-19T12:49:28;6.13;;;5.68;;
49738;SDS011;53662;50.114;8.626;2022-08-19T12:51:54;5.65;;;5.25;;
49738;SDS011;53662;50.114;8.626;2022-08-19T12:54:20;5.22;;;4.93;;
49738;SDS011;53662;50.114;8.626;2022-08-19T12:56:46;6.75;;;5.47;;
49738;SDS011;53662;50.114;8.626;2022-08-19T12:59:12;5.82;;;4.88;;
49738;SDS011;53662;50.114;8.626;2022-08-19T13:01:39;8.07;;;5.40;;
49738;SDS011;53662;50.114;8.626;2022-08-19T13:04:06;6.28;;;4.72;;
49738;SDS011;53662;50.114;8.626;2022-08-19T13:06:32;4.40;;;4.20;;
49738;SDS011;53662;50.114;8.626;2022-08-19T13:08:58;4.97;;;4.63;;
49738;SDS011;53662;50.114;8.626;2022-08-19T13:11:24;10.15;;;4.20;;
49738;SDS011;53662;50.114;8.626;2022-08-19T13:13:51;5.43;;;4.47;;
49738;SDS011;53662;50.114;8.626;2022-08-19T13:16:17;4.30;;;4.10;;
49738;SDS011;53662;50.114;8.626;2022-08-19T13:18:45;6.20;;;4.38;;
49738;SDS011;53662;50.114;8.626;2022-08-19T13:21:12;4.40;;;4.20;;
49738;SDS011;53662;50.114;8.626;2022-08-19T13:23:39;4.93;;;4.38;;
49738;SDS011;53662;50.114;8.626;2022-08-19T13:26:06;10.40;;;4.05;;
49738;SDS011;53662;50.114;8.626;2022-08-19T13:28:33;10.88;;;5.05;;
49738;SDS011;53662;50.114;8.626;2022-08-19T13:31:18;11.15;;;4.30;;
49738;SDS011;53662;50.114;8.626;2022-08-19T13:34:05;4.55;;;4.03;;
49738;SDS011;53662;50.114;8.626;2022-08-19T13:36:31;10.00;;;4.70;;
49738;SDS011;53662;50.114;8.626;2022-08-19T13:38:57;4.07;;;3.38;;
49738;SDS011;53662;50.114;8.626;2022-08-19T13:41:23;3.97;;;3.78;;
49738;SDS011;53662;50.114;8.626;2022-08-19T13:43:49;4.28;;;3.97;;
49738;SDS011;53662;50.114;8.626;2022-08-19T13:46:15;4.82;;;3.60;;
49738;SDS011;53662;50.114;8.626;2022-08-19T13:48:41;3.38;;;3.25;;
49738;SDS011;53662;50.114;8.626;2022-08-19T13:51:08;4.85;;;3.35;;
49738;SDS011;53662;50.114;8.626;2022-08-19T13:53:35;4.25;;;3.80;;
49738;SDS011;53662;50.114;8.626;2022-08-19T13:56:05;3.30;;;3.10;;
49738;SDS011;53662;50.114;8.626;2022-08-19T13:58:31;3.40;;;3.10;;
49738;SDS011;53662;50.114;8.626;2022-08-19T14:00:57;3.40;;;3.20;;
49738;SDS011;53662;50.114;8.626;2022-08-19T14:03:24;5.07;;;3.35;;
49738;SDS011;53662;50.114;8.626;2022-08-19T14:05:50;7.30;;;3.20;;
49738;SDS011;53662;50.114;8.626;2022-08-19T14:08:16;3.17;;;2.97;;
49738;SDS011;53662;50.114;8.626;2022-08-19T14:10:42;3.75;;;3.33;;
49738;SDS011;53662;50.114;8.626;2022-08-19T14:13:09;5.03;;;3.30;;
49738;SDS011;53662;50.114;8.626;2022-08-19T14:15:36;3.00;;;2.90;;
49738;SDS011;53662;50.114;8.626;2022-08-19T14:18:03;7.13;;;2.75;;
49738;SDS011;53662;50.114;8.626;2022-08-19T14:20:29;4.05;;;3.00;;
49738;SDS011;53662;50.114;8.626;2022-08-19T14:22:55;3.95;;;3.47;;
49738;SDS011;53662;50.114;8.626;2022-08-19T14:25:22;4.63;;;3.00;;
49738;SDS011;53662;50.114;8.626;2022-08-19T14:27:49;3.80;;;2.90;;
49738;SDS011;53662;50.114;8.626;2022-08-19T14:30:16;5.25;;;3.50;;
49738;SDS011;53662;50.114;8.626;2022-08-19T14:32:42;3.83;;;3.40;;
49738;SDS011;53662;50.114;8.626;2022-08-19T14:35:08;2.90;;;2.78;;
49738;SDS011;53662;50.114;8.626;2022-08-19T14:37:35;6.55;;;2.63;;
49738;SDS011;53662;50.114;8.626;2022-08-19T14:40:02;4.10;;;3.00;;